createdAt,value
2018-03-19T00:00:27.800Z,-3.54
2018-03-19T00:02:55.292Z,-3.54
2018-03-19T00:05:23.306Z,-3.54
2018-03-19T00:07:50.778Z,-3.57
2018-03-19T00:10:18.235Z,-3.60
2018-03-19T00:12:45.742Z,-3.59
2018-03-19T00:15:13.208Z,-3.60
2018-03-19T00:17:40.741Z,-3.60
2018-03-19T00:20:08.201Z,-3.60
2018-03-19T00:22:35.664Z,-3.60
2018-03-19T00:25:03.188Z,-3.67
2018-03-19T00:27:30.762Z,-3.71
2018-03-19T00:29:58.309Z,-3.75
2018-03-19T00:32:25.844Z,-3.77
2018-03-19T00:34:53.320Z,-3.78
2018-03-19T00:37:20.811Z,-3.71
2018-03-19T00:39:48.270Z,-3.71
2018-03-19T00:42:15.722Z,-3.75
2018-03-19T00:44:43.252Z,-3.77
2018-03-19T00:47:10.726Z,-3.81
2018-03-19T00:49:38.206Z,-3.82
2018-03-19T00:52:05.685Z,-3.83
2018-03-19T00:54:33.242Z,-3.90
2018-03-19T00:57:00.703Z,-3.95
2018-03-19T00:59:28.160Z,-3.95
2018-03-19T01:01:55.713Z,-3.99
2018-03-19T01:04:23.183Z,-4.03
2018-03-19T01:06:50.659Z,-4.00
2018-03-19T01:09:18.159Z,-4.03
2018-03-19T01:11:45.624Z,-4.04
2018-03-19T01:14:13.101Z,-4.09
2018-03-19T01:16:40.606Z,-4.11
2018-03-19T01:19:08.091Z,-4.13
2018-03-19T01:21:35.572Z,-4.16
2018-03-19T01:24:03.072Z,-4.17
2018-03-19T01:26:30.541Z,-4.20
2018-03-19T01:28:58.022Z,-4.18
2018-03-19T01:31:25.615Z,-4.21
2018-03-19T01:33:53.074Z,-4.23
2018-03-19T01:36:20.557Z,-4.23
2018-03-19T01:38:48.078Z,-4.26
2018-03-19T01:41:15.548Z,-4.26
2018-03-19T01:43:43.048Z,-4.29
2018-03-19T01:46:10.562Z,-4.33
2018-03-19T01:48:38.042Z,-4.36
2018-03-19T01:51:05.522Z,-4.39
2018-03-19T01:53:33.028Z,-4.38
2018-03-19T01:56:00.516Z,-4.42
2018-03-19T01:58:28.046Z,-4.41
2018-03-19T02:00:55.542Z,-4.37
2018-03-19T02:03:23.011Z,-4.37
2018-03-19T02:05:50.502Z,-4.41
2018-03-19T02:08:17.998Z,-4.44
2018-03-19T02:10:45.482Z,-4.44
2018-03-19T02:13:12.958Z,-4.45
2018-03-19T02:15:40.463Z,-4.48
2018-03-19T02:18:08.012Z,-4.48
2018-03-19T02:20:35.557Z,-4.46
2018-03-19T02:23:03.047Z,-4.46
2018-03-19T02:25:30.513Z,-4.51
2018-03-19T02:27:57.982Z,-4.53
2018-03-19T02:30:25.491Z,-4.57
2018-03-19T02:32:53.059Z,-4.55
2018-03-19T02:35:20.619Z,-4.60
2018-03-19T02:37:48.104Z,-4.61
2018-03-19T02:40:15.627Z,-4.61
2018-03-19T02:42:43.128Z,-4.64
2018-03-19T02:45:10.599Z,-4.68
2018-03-19T02:47:38.060Z,-4.72
2018-03-19T02:50:05.568Z,-4.72
2018-03-19T02:52:33.148Z,-4.71
2018-03-19T02:55:00.687Z,-4.70
2018-03-19T02:57:28.160Z,-4.71
2018-03-19T02:59:55.643Z,-4.72
2018-03-19T03:02:23.113Z,-4.72
2018-03-19T03:04:50.585Z,-4.71
2018-03-19T03:07:18.094Z,-4.71
2018-03-19T03:09:45.574Z,-4.72
2018-03-19T03:12:13.044Z,-4.73
2018-03-19T03:14:40.589Z,-4.74
2018-03-19T03:17:08.103Z,-4.77
2018-03-19T03:19:35.570Z,-4.80
2018-03-19T03:22:03.075Z,-4.83
2018-03-19T03:24:30.535Z,-4.85
2018-03-19T03:26:57.999Z,-4.84
2018-03-19T03:29:25.494Z,-4.86
2018-03-19T03:31:52.958Z,-4.88
2018-03-19T03:34:20.453Z,-4.88
2018-03-19T03:36:47.971Z,-4.92
2018-03-19T03:39:15.460Z,-4.93
2018-03-19T03:41:43.027Z,-4.98
2018-03-19T03:44:10.534Z,-4.98
2018-03-19T03:46:38.094Z,-4.98
2018-03-19T03:49:05.603Z,-4.97
2018-03-19T03:51:33.105Z,-4.98
2018-03-19T03:54:00.579Z,-4.98
2018-03-19T03:56:28.059Z,-4.97
2018-03-19T03:58:55.544Z,-4.98
2018-03-19T04:01:23.060Z,-4.99
2018-03-19T04:03:50.549Z,-5.02
2018-03-19T04:06:18.004Z,-5.03
2018-03-19T04:08:45.480Z,-5.04
2018-03-19T04:11:12.968Z,-5.04
2018-03-19T04:13:40.479Z,-5.03
2018-03-19T04:16:07.958Z,-5.05
2018-03-19T04:18:35.446Z,-5.03
2018-03-19T04:21:02.910Z,-5.07
2018-03-19T04:23:30.473Z,-5.10
2018-03-19T04:25:57.955Z,-5.10
2018-03-19T04:28:25.420Z,-5.10
2018-03-19T04:30:52.918Z,-5.10
2018-03-19T04:33:20.398Z,-5.11
2018-03-19T04:35:47.891Z,-5.11
2018-03-19T04:38:15.346Z,-5.13
2018-03-19T04:40:42.877Z,-5.15
2018-03-19T04:43:10.367Z,-5.14
2018-03-19T04:45:37.895Z,-5.13
2018-03-19T04:48:05.355Z,-5.15
2018-03-19T04:50:32.848Z,-5.15
2018-03-19T04:53:00.393Z,-5.17
2018-03-19T04:55:27.890Z,-5.16
2018-03-19T04:57:55.359Z,-5.17
2018-03-19T05:00:22.836Z,-5.23
2018-03-19T05:02:50.323Z,-5.21
2018-03-19T05:05:17.799Z,-5.19
2018-03-19T05:07:45.354Z,-5.18
2018-03-19T05:10:12.817Z,-5.19
2018-03-19T05:12:40.281Z,-5.25
2018-03-19T05:15:07.757Z,-5.26
2018-03-19T05:17:35.254Z,-5.26
2018-03-19T05:20:02.734Z,-5.21
2018-03-19T05:22:30.272Z,-5.20
2018-03-19T05:24:57.758Z,-5.15
2018-03-19T05:27:25.282Z,-5.17
2018-03-19T05:29:52.846Z,-5.13
2018-03-19T05:32:20.311Z,-5.13
2018-03-19T05:34:47.832Z,-5.19
2018-03-19T05:37:15.311Z,-5.17
2018-03-19T05:39:42.774Z,-5.18
2018-03-19T05:42:10.250Z,-5.17
2018-03-19T05:44:37.738Z,-5.21
2018-03-19T05:47:05.229Z,-5.19
2018-03-19T05:49:32.702Z,-5.17
2018-03-19T05:52:00.265Z,-5.14
2018-03-19T05:54:27.817Z,-5.10
2018-03-19T05:56:56.505Z,-5.09
2018-03-19T05:59:24.010Z,-5.07
2018-03-19T06:01:51.486Z,-5.03
2018-03-19T06:04:18.981Z,-5.02
2018-03-19T06:06:46.453Z,-5.02
2018-03-19T06:09:13.918Z,-4.96
2018-03-19T06:11:41.398Z,-4.92
2018-03-19T06:14:08.876Z,-4.87
2018-03-19T06:16:36.367Z,-4.87
2018-03-19T06:19:03.856Z,-4.82
2018-03-19T06:21:31.374Z,-4.74
2018-03-19T06:23:58.939Z,-4.56
2018-03-19T06:26:26.443Z,-4.56
2018-03-19T06:28:53.927Z,-4.58
2018-03-19T06:31:21.428Z,-4.48
2018-03-19T06:33:48.943Z,-4.46
2018-03-19T06:36:16.418Z,-4.45
2018-03-19T06:38:43.919Z,-4.44
2018-03-19T06:41:11.389Z,-4.40
2018-03-19T06:43:38.858Z,-4.31
2018-03-19T06:46:06.371Z,-4.20
2018-03-19T06:48:33.838Z,-4.06
2018-03-19T06:51:01.390Z,-3.95
2018-03-19T06:53:28.988Z,-3.99
2018-03-19T06:55:56.498Z,-3.94
2018-03-19T06:58:24.111Z,-3.94
2018-03-19T07:00:51.613Z,-3.85
2018-03-19T07:03:19.177Z,-3.82
2018-03-19T07:05:46.673Z,-3.75
2018-03-19T07:08:14.170Z,-3.69
2018-03-19T07:10:41.636Z,-3.67
2018-03-19T07:13:09.134Z,-3.56
2018-03-19T07:15:36.618Z,-3.38
2018-03-19T07:18:04.102Z,-3.12
2018-03-19T07:23:22.149Z,-3.16
2018-03-19T07:25:49.614Z,-3.04
2018-03-19T07:28:17.082Z,-3.00
2018-03-19T07:30:44.579Z,-2.89
2018-03-19T07:33:12.075Z,-2.85
2018-03-19T07:35:39.547Z,-2.77
2018-03-19T07:38:07.038Z,-2.68
2018-03-19T07:40:34.571Z,-2.49
2018-03-19T07:43:02.036Z,-2.41
2018-03-19T07:45:29.511Z,-2.21
2018-03-19T07:47:57.007Z,-1.87
2018-03-19T07:50:24.468Z,-1.63
2018-03-19T07:52:51.930Z,-1.74
2018-03-19T07:55:20.495Z,-1.93
2018-03-19T07:57:47.945Z,-1.97
2018-03-19T08:00:15.434Z,-1.96
2018-03-19T08:02:42.922Z,-1.89
2018-03-19T08:05:10.378Z,-1.80
2018-03-19T08:07:37.875Z,-1.67
2018-03-19T08:10:05.356Z,-1.41
2018-03-19T08:12:32.819Z,-1.30
2018-03-19T08:15:00.319Z,-1.48
2018-03-19T08:17:27.778Z,-1.50
2018-03-19T08:19:55.257Z,-1.44
2018-03-19T08:22:22.748Z,-1.53
2018-03-19T08:24:50.214Z,-1.45
2018-03-19T08:27:17.704Z,-1.39
2018-03-19T08:29:45.171Z,-1.38
2018-03-19T08:32:12.685Z,-1.29
2018-03-19T08:34:40.166Z,-1.17
2018-03-19T08:37:07.621Z,-0.76
2018-03-19T08:39:35.127Z,-0.73
2018-03-19T08:42:02.604Z,-0.75
2018-03-19T08:44:30.091Z,-0.72
2018-03-19T08:46:57.573Z,-0.80
2018-03-19T08:49:25.030Z,-0.83
2018-03-19T08:51:52.514Z,-0.78
2018-03-19T08:54:19.966Z,-0.69
2018-03-19T08:56:47.510Z,-0.62
2018-03-19T08:59:15.005Z,-0.43
2018-03-19T09:01:42.526Z,-0.55
2018-03-19T09:04:10.081Z,-0.35
2018-03-19T09:06:37.538Z,-0.34
2018-03-19T09:09:05.876Z,-0.41
2018-03-19T09:11:33.343Z,-0.37
2018-03-19T09:14:00.812Z,-0.39
2018-03-19T09:16:28.317Z,-0.15
2018-03-19T09:18:55.776Z,0.20
2018-03-19T09:21:23.247Z,0.45
2018-03-19T09:23:50.739Z,0.23
2018-03-19T09:26:18.211Z,-0.15
2018-03-19T09:28:45.692Z,-0.18
2018-03-19T09:31:13.235Z,-0.14
2018-03-19T09:33:40.679Z,0.10
2018-03-19T09:36:08.142Z,0.40
2018-03-19T09:38:35.610Z,0.34
2018-03-19T09:41:03.086Z,0.39
2018-03-19T09:43:30.553Z,0.61
2018-03-19T09:45:58.116Z,0.79
2018-03-19T09:48:25.576Z,0.44
2018-03-19T09:50:53.050Z,0.27
2018-03-19T09:53:20.564Z,0.74
2018-03-19T09:55:48.116Z,1.10
2018-03-19T09:58:15.598Z,0.89
2018-03-19T10:00:43.154Z,1.07
2018-03-19T10:03:10.612Z,1.29
2018-03-19T10:05:38.070Z,1.17
2018-03-19T10:08:05.534Z,0.94
2018-03-19T10:10:33.048Z,0.73
2018-03-19T10:13:00.511Z,0.64
2018-03-19T10:15:27.963Z,0.77
2018-03-19T10:17:55.442Z,0.77
2018-03-19T10:20:23.357Z,0.89
2018-03-19T10:22:50.812Z,1.22
2018-03-19T10:25:18.283Z,1.16
2018-03-19T10:27:45.766Z,1.06
2018-03-19T10:30:13.224Z,0.97
2018-03-19T10:32:40.816Z,1.08
2018-03-19T10:35:08.292Z,1.17
2018-03-19T10:37:35.774Z,1.31
2018-03-19T10:40:03.275Z,1.41
2018-03-19T10:42:30.757Z,1.55
2018-03-19T10:44:58.216Z,1.63
2018-03-19T10:47:25.686Z,1.46
2018-03-19T10:49:53.182Z,1.57
2018-03-19T10:52:20.622Z,1.53
2018-03-19T10:54:48.175Z,1.79
2018-03-19T10:57:15.627Z,1.70
2018-03-19T10:59:43.082Z,1.46
2018-03-19T11:02:16.404Z,1.78
2018-03-19T11:04:49.390Z,2.12
2018-03-19T11:07:22.462Z,1.99
2018-03-19T11:09:50.000Z,1.88
2018-03-19T11:12:17.512Z,1.80
2018-03-19T11:14:44.942Z,1.76
2018-03-19T11:17:12.419Z,1.88
2018-03-19T11:19:39.878Z,1.95
2018-03-19T11:22:07.321Z,2.18
2018-03-19T11:24:34.816Z,2.29
2018-03-19T11:27:02.272Z,2.44
2018-03-19T11:29:29.724Z,2.26
2018-03-19T11:31:57.195Z,2.19
2018-03-19T11:34:24.650Z,2.32
2018-03-19T11:36:52.120Z,2.09
2018-03-19T11:39:19.679Z,2.22
2018-03-19T11:41:47.174Z,2.30
2018-03-19T11:44:14.638Z,2.22
2018-03-19T11:46:42.193Z,2.23
2018-03-19T11:49:09.645Z,2.22
2018-03-19T11:51:37.111Z,2.24
2018-03-19T11:54:04.580Z,2.21
2018-03-19T11:56:32.048Z,2.28
2018-03-19T11:58:59.519Z,2.32
2018-03-19T12:01:27.034Z,2.53
2018-03-19T12:03:54.490Z,2.72
2018-03-19T12:06:21.978Z,2.68
2018-03-19T12:08:49.435Z,2.68
2018-03-19T12:11:16.893Z,2.61
2018-03-19T12:13:44.389Z,2.52
2018-03-19T12:16:11.854Z,2.53
2018-03-19T12:18:39.308Z,2.52
2018-03-19T12:21:06.782Z,2.54
2018-03-19T12:23:34.269Z,2.64
2018-03-19T12:26:01.722Z,2.77
2018-03-19T12:28:29.233Z,2.86
2018-03-19T12:30:56.689Z,3.07
2018-03-19T12:33:24.218Z,3.05
2018-03-19T12:35:51.675Z,2.73
2018-03-19T12:38:19.228Z,2.85
2018-03-19T12:40:46.703Z,3.06
2018-03-19T12:43:14.164Z,3.34
2018-03-19T12:45:41.642Z,3.06
2018-03-19T12:48:09.226Z,3.11
2018-03-19T12:50:36.758Z,3.06
2018-03-19T12:53:04.234Z,3.18
2018-03-19T12:55:31.711Z,3.18
2018-03-19T12:57:59.177Z,3.21
2018-03-19T13:00:26.706Z,3.31
2018-03-19T13:02:54.160Z,3.37
2018-03-19T13:05:21.642Z,3.24
2018-03-19T13:07:49.212Z,3.15
2018-03-19T13:10:16.666Z,3.09
2018-03-19T13:12:44.125Z,3.05
2018-03-19T13:15:11.583Z,3.17
2018-03-19T13:17:39.074Z,3.26
2018-03-19T13:20:06.572Z,3.54
2018-03-19T13:22:34.030Z,3.44
2018-03-19T13:25:01.494Z,3.63
2018-03-19T13:27:28.947Z,3.62
2018-03-19T13:29:56.398Z,3.65
2018-03-19T13:32:23.948Z,3.60
2018-03-19T13:34:51.410Z,3.49
2018-03-19T13:37:19.211Z,3.28
2018-03-19T13:39:46.692Z,3.45
2018-03-19T13:42:14.228Z,3.55
2018-03-19T13:44:42.512Z,3.61
2018-03-19T13:47:10.027Z,3.55
2018-03-19T13:49:37.488Z,3.53
2018-03-19T13:52:04.939Z,3.58
2018-03-19T13:54:32.410Z,3.69
2018-03-19T13:56:59.867Z,3.76
2018-03-19T13:59:27.317Z,3.83
2018-03-19T14:01:54.792Z,3.77
2018-03-19T14:04:22.244Z,3.64
2018-03-19T14:06:49.752Z,3.73
2018-03-19T14:09:17.222Z,3.74
2018-03-19T14:11:44.679Z,3.73
2018-03-19T14:14:12.166Z,3.83
2018-03-19T14:16:39.635Z,3.67
2018-03-19T14:19:07.089Z,3.76
2018-03-19T14:21:34.582Z,3.84
2018-03-19T14:24:02.036Z,3.78
2018-03-19T14:26:29.482Z,3.53
2018-03-19T14:28:57.035Z,3.55
2018-03-19T14:31:24.545Z,3.56
2018-03-19T14:33:52.102Z,3.60
2018-03-19T14:36:19.578Z,3.73
2018-03-19T14:38:47.127Z,3.84
2018-03-19T14:41:14.588Z,3.82
2018-03-19T14:43:42.035Z,3.87
2018-03-19T14:46:09.526Z,3.87
2018-03-19T14:48:36.983Z,3.70
2018-03-19T14:51:04.514Z,3.58
2018-03-19T14:53:32.073Z,3.58
2018-03-19T14:55:59.589Z,3.62
2018-03-19T14:58:27.046Z,3.70
2018-03-19T15:00:54.614Z,3.71
2018-03-19T15:03:22.071Z,3.64
2018-03-19T15:05:49.541Z,3.54
2018-03-19T15:08:17.038Z,3.48
2018-03-19T15:10:44.525Z,3.51
2018-03-19T15:13:12.002Z,3.56
2018-03-19T15:15:39.458Z,3.66
2018-03-19T15:18:06.942Z,3.58
2018-03-19T15:20:34.399Z,3.49
2018-03-19T15:23:01.915Z,3.43
2018-03-19T15:25:29.493Z,3.46
2018-03-19T15:27:56.962Z,3.45
2018-03-19T15:30:24.440Z,3.45
2018-03-19T15:32:51.924Z,3.45
2018-03-19T15:35:19.395Z,3.38
2018-03-19T15:37:46.861Z,3.25
2018-03-19T15:40:14.339Z,3.23
2018-03-19T15:42:41.842Z,3.20
2018-03-19T15:45:09.343Z,3.19
2018-03-19T15:47:36.791Z,3.16
2018-03-19T15:50:04.282Z,3.14
2018-03-19T15:52:31.881Z,3.08
2018-03-19T15:54:59.422Z,3.06
2018-03-19T15:57:26.877Z,3.05
2018-03-19T15:59:54.414Z,3.03
2018-03-19T16:02:21.916Z,3.03
2018-03-19T16:04:49.367Z,2.98
2018-03-19T16:07:16.861Z,2.97
2018-03-19T16:09:44.315Z,2.97
2018-03-19T16:12:11.766Z,2.94
2018-03-19T16:14:39.258Z,2.91
2018-03-19T16:17:06.722Z,3.27
2018-03-19T16:19:34.236Z,4.42
2018-03-19T16:22:01.748Z,5.24
2018-03-19T16:24:29.237Z,5.36
2018-03-19T16:26:56.798Z,5.71
2018-03-19T16:29:24.285Z,5.28
2018-03-19T16:31:51.733Z,5.02
2018-03-19T16:34:19.194Z,5.20
2018-03-19T16:36:46.678Z,5.47
2018-03-19T16:39:14.134Z,5.10
2018-03-19T16:41:41.589Z,4.28
2018-03-19T16:44:09.102Z,3.46
2018-03-19T16:46:36.610Z,2.92
2018-03-19T16:49:04.073Z,2.68
2018-03-19T16:51:31.539Z,2.58
2018-03-19T16:53:59.158Z,2.43
2018-03-19T16:56:26.695Z,2.37
2018-03-19T16:58:54.183Z,2.28
2018-03-19T17:01:22.350Z,2.22
2018-03-19T17:03:49.809Z,2.14
2018-03-19T17:06:17.297Z,2.07
2018-03-19T17:08:44.815Z,2.07
2018-03-19T17:11:12.510Z,2.03
2018-03-19T17:13:40.004Z,1.99
2018-03-19T17:16:07.493Z,1.95
2018-03-19T17:18:34.998Z,1.90
2018-03-19T17:21:02.464Z,1.87
2018-03-19T17:23:29.943Z,1.82
2018-03-19T17:25:57.394Z,1.79
2018-03-19T17:28:24.853Z,1.74
2018-03-19T17:30:52.372Z,1.72
2018-03-19T17:33:19.834Z,1.70
2018-03-19T17:35:47.286Z,1.67
2018-03-19T17:38:14.779Z,1.62
2018-03-19T17:40:42.274Z,1.59
2018-03-19T17:43:09.881Z,1.58
2018-03-19T17:45:37.359Z,1.56
2018-03-19T17:48:04.824Z,1.54
2018-03-19T17:50:32.293Z,1.49
2018-03-19T17:52:59.766Z,1.44
2018-03-19T17:55:27.222Z,1.41
2018-03-19T17:57:54.702Z,1.37
2018-03-19T18:00:22.274Z,1.37
2018-03-19T18:02:49.739Z,1.35
2018-03-19T18:05:17.241Z,1.36
2018-03-19T18:07:44.719Z,1.34
2018-03-19T18:10:12.176Z,1.30
2018-03-19T18:12:39.670Z,1.31
2018-03-19T18:15:07.223Z,1.29
2018-03-19T18:17:34.693Z,1.25
2018-03-19T18:20:02.185Z,1.27
2018-03-19T18:22:29.694Z,1.25
2018-03-19T18:24:57.255Z,1.26
2018-03-19T18:27:24.729Z,1.30
2018-03-19T18:29:52.234Z,1.27
2018-03-19T18:32:19.702Z,1.25
2018-03-19T18:34:47.182Z,1.23
2018-03-19T18:37:14.653Z,1.19
2018-03-19T18:39:42.124Z,1.17
2018-03-19T18:42:09.583Z,1.13
2018-03-19T18:44:37.102Z,1.13
2018-03-19T18:47:04.604Z,1.14
2018-03-19T18:49:32.126Z,1.10
2018-03-19T18:51:59.616Z,1.05
2018-03-19T18:54:27.128Z,0.94
2018-03-19T18:56:54.624Z,0.90
2018-03-19T18:59:22.135Z,0.88
2018-03-19T19:01:49.620Z,0.85
2018-03-19T19:04:17.181Z,0.84
2018-03-19T19:06:44.740Z,0.85
2018-03-19T19:09:12.226Z,0.85
2018-03-19T19:11:39.750Z,0.85
2018-03-19T19:14:07.230Z,0.85
2018-03-19T19:16:34.711Z,0.85
2018-03-19T19:19:02.232Z,0.83
2018-03-19T19:21:29.711Z,0.81
2018-03-19T19:23:57.176Z,0.81
2018-03-19T19:26:24.967Z,0.79
2018-03-19T19:28:52.475Z,0.78
2018-03-19T19:31:19.939Z,0.81
2018-03-19T19:33:47.438Z,0.79
2018-03-19T19:36:14.927Z,0.75
2018-03-19T19:38:42.429Z,0.69
2018-03-19T19:41:09.889Z,0.64
2018-03-19T19:43:37.392Z,0.69
2018-03-19T19:46:05.030Z,0.63
2018-03-19T19:48:32.570Z,0.59
2018-03-19T19:51:00.091Z,0.48
2018-03-19T19:53:27.602Z,0.46
2018-03-19T19:55:55.065Z,0.47
2018-03-19T19:58:22.555Z,0.51
2018-03-19T20:00:50.012Z,0.47
2018-03-19T20:03:17.540Z,0.39
2018-03-19T20:05:45.032Z,0.32
2018-03-19T20:08:12.504Z,0.24
2018-03-19T20:10:40.072Z,0.19
2018-03-19T20:13:07.553Z,0.14
2018-03-19T20:15:35.014Z,0.08
2018-03-19T20:18:02.494Z,0.05
2018-03-19T20:20:29.961Z,0.06
2018-03-19T20:22:57.458Z,0.07
2018-03-19T20:25:24.941Z,0.07
2018-03-19T20:27:52.401Z,0.05
2018-03-19T20:30:19.878Z,0.01
2018-03-19T20:32:47.372Z,0.01
2018-03-19T20:35:14.931Z,0.05
2018-03-19T20:37:42.415Z,0.07
2018-03-19T20:40:09.900Z,0.06
2018-03-19T20:42:37.375Z,0.05
2018-03-19T20:45:04.856Z,0.04
2018-03-19T20:47:32.447Z,0.01
2018-03-19T20:49:59.905Z,-0.02
2018-03-19T20:52:27.411Z,-0.01
2018-03-19T20:54:54.936Z,-0.03
2018-03-19T20:57:22.417Z,-0.07
2018-03-19T20:59:49.904Z,-0.10
2018-03-19T21:02:17.422Z,-0.09
2018-03-19T21:04:44.916Z,-0.08
2018-03-19T21:07:12.390Z,-0.09
2018-03-19T21:09:39.932Z,-0.09
2018-03-19T21:12:07.421Z,-0.09
2018-03-19T21:14:34.916Z,-0.10
2018-03-19T21:17:02.374Z,-0.12
2018-03-19T21:19:29.838Z,-0.09
2018-03-19T21:21:57.346Z,-0.04
2018-03-19T21:24:24.841Z,-0.01
2018-03-19T21:26:52.332Z,0.02
2018-03-19T21:29:19.816Z,0.02
2018-03-19T21:31:47.350Z,0.03
2018-03-19T21:34:14.819Z,0.02
2018-03-19T21:36:42.302Z,0.01
2018-03-19T21:39:09.772Z,0.01
2018-03-19T21:41:37.305Z,0.03
2018-03-19T21:44:04.885Z,0.09
2018-03-19T21:46:32.403Z,0.11
2018-03-19T21:48:59.975Z,0.11
2018-03-19T21:51:27.461Z,0.08
2018-03-19T21:53:54.963Z,0.00
2018-03-19T21:56:22.430Z,0.00
2018-03-19T21:58:49.916Z,-0.01
2018-03-19T22:01:17.390Z,-0.02
2018-03-19T22:03:44.894Z,-0.07
2018-03-19T22:06:12.390Z,-0.19
2018-03-19T22:08:39.939Z,-0.27
2018-03-19T22:11:07.442Z,-0.37
2018-03-19T22:13:35.002Z,-0.38
2018-03-19T22:16:02.482Z,-0.40
2018-03-19T22:18:29.953Z,-0.41
2018-03-19T22:20:57.444Z,-0.46
2018-03-19T22:23:24.906Z,-0.49
2018-03-19T22:25:52.373Z,-0.53
2018-03-19T22:28:19.896Z,-0.47
2018-03-19T22:30:47.368Z,-0.50
2018-03-19T22:33:14.909Z,-0.54
2018-03-19T22:35:42.393Z,-0.57
2018-03-19T22:38:09.870Z,-0.59
2018-03-19T22:40:37.338Z,-0.59
2018-03-19T22:43:04.840Z,-0.56
2018-03-19T22:45:32.314Z,-0.53
2018-03-19T22:47:59.817Z,-0.59
2018-03-19T22:50:27.319Z,-0.63
2018-03-19T22:52:54.805Z,-0.66
2018-03-19T22:55:22.387Z,-0.76
2018-03-19T22:57:49.902Z,-0.83
2018-03-19T23:00:17.397Z,-0.86
2018-03-19T23:02:44.959Z,-0.89
2018-03-19T23:05:27.335Z,-0.93
2018-03-19T23:07:54.802Z,-0.95
2018-03-19T23:10:22.269Z,-0.99
2018-03-19T23:12:49.759Z,-1.01
2018-03-19T23:15:17.264Z,-1.04
2018-03-19T23:17:44.750Z,-1.08
2018-03-19T23:20:12.238Z,-1.12
2018-03-19T23:22:39.735Z,-1.15
2018-03-19T23:25:07.234Z,-1.18
2018-03-19T23:27:34.702Z,-1.20
2018-03-19T23:30:02.179Z,-1.18
2018-03-19T23:32:29.904Z,-1.16
2018-03-19T23:34:57.390Z,-1.13
2018-03-19T23:37:24.875Z,-1.09
2018-03-19T23:39:52.442Z,-1.08
2018-03-19T23:42:20.010Z,-1.07
2018-03-19T23:44:47.477Z,-1.07
2018-03-19T23:47:14.931Z,-1.08
2018-03-19T23:49:42.420Z,-1.10
2018-03-19T23:52:09.886Z,-1.13
2018-03-19T23:54:37.367Z,-1.17
2018-03-19T23:57:04.861Z,-1.21
2018-03-19T23:59:32.322Z,-1.22
